Time;durP1;ratioP1;P1;durP2;ratioP2;P2;SDS_P1;SDS_P2;PMS_P1;PMS_P2;Temp;Humidity;BMP_temperature;BMP_pressure;BME280_temperature;BME280_humidity;BME280_pressure;Samples;Min_cycle;Max_cycle;Signal;HPM_P1;HPM_P2
2023/05/25 00:02:18;;;;;;;5.32;3.67;;;;;;;14.88;64.50;94736.13;5044544;28;20052;-70
2023/05/25 00:04:47;;;;;;;4.97;3.90;;;;;;;14.86;64.36;94734.66;5031670;28;20072;-70
2023/05/25 00:07:13;;;;;;;5.03;3.65;;;;;;;14.75;64.45;94725.25;5031373;28;20549;-71
2023/05/25 00:09:39;;;;;;;4.40;3.90;;;;;;;14.74;64.21;94747.97;4998492;28;20046;-70
2023/05/25 00:12:05;;;;;;;4.75;3.70;;;;;;;14.67;64.93;94749.56;5032326;28;20063;-70
2023/05/25 00:14:31;;;;;;;7.82;4.00;;;;;;;14.47;65.37;94735.03;5032726;28;20030;-71
2023/05/25 00:16:57;;;;;;;6.22;3.90;;;;;;;14.52;65.45;94761.56;5049014;28;20483;-70
2023/05/25 00:19:23;;;;;;;4.43;3.92;;;;;;;14.57;65.74;94758.47;5035174;28;20120;-70
2023/05/25 00:21:51;;;;;;;5.88;3.72;;;;;;;14.54;65.87;94762.22;5031129;28;20053;-70
2023/05/25 00:24:16;;;;;;;5.80;3.72;;;;;;;14.75;65.59;94762.69;5052132;28;20426;-71
2023/05/25 00:26:41;;;;;;;5.35;3.80;;;;;;;14.81;65.65;94776.13;5030347;28;20419;-71
2023/05/25 00:29:07;;;;;;;4.90;4.22;;;;;;;14.67;66.01;94767.88;5026361;28;20392;-70
2023/05/25 00:31:34;;;;;;;4.93;4.22;;;;;;;14.61;66.43;94773.72;5050290;28;20037;-71
2023/05/25 00:33:59;;;;;;;5.63;3.92;;;;;;;14.46;66.57;94777.81;5014037;28;20535;-70
2023/05/25 00:36:25;;;;;;;5.97;4.10;;;;;;;14.34;67.37;94782.44;5032027;28;20037;-70
2023/05/25 00:38:50;;;;;;;4.25;3.72;;;;;;;14.34;67.03;94779.00;5030770;28;20476;-70
2023/05/25 00:41:19;;;;;;;6.57;4.18;;;;;;;14.39;66.90;94785.44;5036602;28;20047;-70
2023/05/25 00:43:45;;;;;;;4.75;4.20;;;;;;;14.17;67.20;94775.44;5050239;28;20029;-70
2023/05/25 00:46:15;;;;;;;5.95;4.13;;;;;;;14.00;67.86;94790.13;5016892;28;20128;-70
2023/05/25 00:48:41;;;;;;;5.55;4.30;;;;;;;13.93;67.95;94784.69;5024157;28;20040;-71
2023/05/25 00:51:07;;;;;;;4.72;3.80;;;;;;;13.92;67.88;94777.81;5045345;28;20115;-71
2023/05/25 00:53:32;;;;;;;4.63;4.00;;;;;;;13.89;68.16;94780.72;5028960;28;20479;-70
2023/05/25 00:56:04;;;;;;;4.40;3.90;;;;;;;13.76;67.96;94761.97;5046289;28;20040;-70
2023/05/25 00:58:32;;;;;;;5.70;3.90;;;;;;;13.93;67.85;94784.69;5045841;28;20029;-70
2023/05/25 01:00:57;;;;;;;4.13;3.65;;;;;;;13.84;67.66;94782.97;5028218;28;20041;-71
2023/05/25 01:03:26;;;;;;;6.22;4.32;;;;;;;13.77;67.87;94785.34;5030296;28;20056;-70
2023/05/25 01:05:53;;;;;;;4.65;3.85;;;;;;;13.74;67.55;94769.16;5029461;28;20052;-70
2023/05/25 01:08:20;;;;;;;5.82;4.03;;;;;;;13.84;67.34;94782.97;5028019;28;20021;-70
2023/05/25 01:10:47;;;;;;;6.55;4.13;;;;;;;13.88;67.49;94788.72;5028472;28;20730;-70
2023/05/25 01:13:13;;;;;;;5.07;4.10;;;;;;;13.79;67.35;94775.59;5029666;28;20033;-70
2023/05/25 01:15:38;;;;;;;5.40;3.88;;;;;;;13.78;67.64;94786.97;5028292;28;20526;-70
2023/05/25 01:18:04;;;;;;;5.40;4.00;;;;;;;13.87;67.28;94787.88;5028342;28;20048;-70
2023/05/25 01:20:29;;;;;;;5.57;3.70;;;;;;;13.71;67.40;94780.72;5046099;28;20045;-71
2023/05/25 01:23:11;;;;;;;7.00;3.83;;;;;;;13.69;67.46;94779.22;5044977;28;20036;-71
2023/05/25 01:25:42;;;;;;;4.75;3.88;;;;;;;13.63;67.45;94778.03;5028863;28;20136;-70
2023/05/25 01:28:12;;;;;;;;;;;;;;;13.64;67.43;94784.88;5045261;28;20025;-70
2023/05/25 01:30:39;;;;;;;4.45;3.45;;;;;;;13.47;67.99;94767.41;5042805;28;19920;-71
2023/05/25 01:33:05;;;;;;;5.30;3.88;;;;;;;13.56;67.77;94782.16;5044914;28;20114;-70
2023/05/25 01:35:30;;;;;;;4.75;3.60;;;;;;;13.44;68.02;94770.28;5029362;28;20396;-70
2023/05/25 01:37:57;;;;;;;6.50;4.03;;;;;;;13.43;68.15;94776.47;5029043;28;20029;-70
2023/05/25 01:40:22;;;;;;;5.60;4.63;;;;;;;13.37;68.53;94754.38;5027193;28;20051;-70
2023/05/25 01:42:48;;;;;;;4.70;4.10;;;;;;;13.37;68.36;94759.59;5029979;28;20025;-70
2023/05/25 01:45:13;;;;;;;4.85;3.75;;;;;;;13.39;68.39;94755.06;5027091;28;20644;-70
2023/05/25 01:47:47;;;;;;;5.43;3.95;;;;;;;13.44;68.38;94765.09;5031505;28;20037;-70
2023/05/25 01:50:31;;;;;;;6.15;4.18;;;;;;;13.31;68.94;94758.41;5029660;28;20040;-70
2023/05/25 01:53:09;;;;;;;7.38;4.25;;;;;;;13.35;68.66;94762.38;5047197;28;20025;-70
2023/05/25 01:55:42;;;;;;;5.03;4.22;;;;;;;13.30;68.54;94756.75;5049471;28;20472;-71
2023/05/25 01:58:08;;;;;;;4.38;3.70;;;;;;;13.33;68.58;94761.69;5047561;28;20033;-70
2023/05/25 02:00:33;;;;;;;7.97;4.30;;;;;;;13.32;68.74;94761.84;5026749;28;20060;-70
2023/05/25 02:03:00;;;;;;;5.45;3.88;;;;;;;13.30;68.72;94763.78;5032733;28;20055;-70
2023/05/25 02:05:26;;;;;;;5.38;3.90;;;;;;;13.23;68.69;94763.47;5032991;28;20112;-71
2023/05/25 02:07:52;;;;;;;5.03;4.10;;;;;;;13.25;68.79;94758.13;5026834;28;20037;-71
2023/05/25 02:10:17;;;;;;;4.97;4.15;;;;;;;13.21;69.19;94752.41;5031543;28;20045;-70
2023/05/25 02:12:43;;;;;;;5.43;3.90;;;;;;;13.27;69.07;94767.50;5032620;28;20045;-70
2023/05/25 02:15:09;;;;;;;5.82;4.53;;;;;;;13.27;69.30;94769.28;5034975;28;20029;-70
2023/05/25 02:17:35;;;;;;;4.28;3.75;;;;;;;13.12;69.41;94755.84;5028765;28;20115;-70
2023/05/25 02:20:02;;;;;;;4.90;4.25;;;;;;;13.23;69.34;94770.50;5049065;28;20025;-70
2023/05/25 02:22:28;;;;;;;4.60;4.10;;;;;;;13.15;69.49;94779.06;5035898;28;20037;-70
2023/05/25 02:24:53;;;;;;;4.80;3.83;;;;;;;13.25;69.32;94771.19;5035074;28;20040;-70
2023/05/25 02:27:19;;;;;;;4.53;3.78;;;;;;;13.19;69.10;94775.19;5000400;28;20140;-70
2023/05/25 02:29:45;;;;;;;5.03;3.95;;;;;;;13.16;69.56;94772.88;5031870;28;20029;-70
2023/05/25 02:32:10;;;;;;;5.50;4.00;;;;;;;13.28;69.10;94773.53;5033109;28;20037;-70
2023/05/25 02:34:35;;;;;;;6.10;4.05;;;;;;;13.19;69.17;94773.38;5033287;28;20029;-70
2023/05/25 02:37:01;;;;;;;5.40;3.85;;;;;;;13.22;69.19;94785.31;5034163;28;20041;-70
2023/05/25 02:39:27;;;;;;;4.53;3.80;;;;;;;13.10;69.26;94783.88;5052938;28;20577;-70
2023/05/25 02:41:53;;;;;;;5.53;4.13;;;;;;;13.08;69.40;94786.63;5051946;28;20119;-71
2023/05/25 02:44:18;;;;;;;4.85;4.03;;;;;;;13.24;68.83;94799.06;5021412;28;20029;-70
2023/05/25 02:46:44;;;;;;;4.93;3.90;;;;;;;12.92;69.21;94784.59;5028344;28;20053;-70
2023/05/25 02:49:09;;;;;;;4.55;3.97;;;;;;;12.87;70.08;94797.25;5032237;28;20028;-70
2023/05/25 02:51:35;;;;;;;4.43;3.70;;;;;;;12.85;70.26;94803.56;5000209;28;20037;-70
2023/05/25 02:54:01;;;;;;;7.35;4.20;;;;;;;12.68;70.79;94786.88;5032844;28;20026;-70
2023/05/25 02:56:27;;;;;;;6.82;4.53;;;;;;;12.59;71.70;94816.34;5016286;28;20499;-70
2023/05/25 02:58:52;;;;;;;7.13;4.43;;;;;;;12.75;71.81;94817.44;5040059;28;20033;-70
2023/05/25 03:01:18;;;;;;;5.97;4.82;;;;;;;12.96;71.13;94825.09;5033773;28;20037;-70
2023/05/25 03:03:50;;;;;;;6.53;4.90;;;;;;;12.78;71.06;94818.94;5044860;28;20029;-70
2023/05/25 03:06:16;;;;;;;6.07;4.20;;;;;;;12.66;71.18;94809.66;5035845;28;20557;-70
2023/05/25 03:08:41;;;;;;;7.53;5.00;;;;;;;12.72;70.97;94820.31;5027983;28;20033;-70
2023/05/25 03:11:07;;;;;;;7.85;4.22;;;;;;;12.61;71.21;94822.25;5051554;28;20057;-70
2023/05/25 03:13:32;;;;;;;5.53;4.22;;;;;;;12.59;71.34;94814.59;5031585;28;20030;-70
2023/05/25 03:15:58;;;;;;;5.50;4.45;;;;;;;12.65;71.05;94813.22;5035480;28;20445;-72
2023/05/25 03:18:23;;;;;;;5.95;4.00;;;;;;;12.69;71.10;94822.38;5015798;28;20112;-70
2023/05/25 03:20:49;;;;;;;5.18;4.32;;;;;;;12.69;71.34;94830.22;5043706;28;20048;-70
2023/05/25 03:23:15;;;;;;;4.55;4.05;;;;;;;12.74;70.97;94835.84;5043594;28;20029;-70
2023/05/25 03:25:40;;;;;;;5.93;4.60;;;;;;;12.65;71.12;94823.66;5032101;28;20033;-70
2023/05/25 03:28:06;;;;;;;7.90;4.50;;;;;;;12.79;70.90;94827.56;5016711;28;20530;-70
2023/05/25 03:30:31;;;;;;;5.82;4.50;;;;;;;12.76;70.82;94833.91;5035602;28;20041;-70
2023/05/25 03:32:57;;;;;;;6.60;4.70;;;;;;;12.86;70.92;94833.88;5048163;28;20088;-70
2023/05/25 03:35:22;;;;;;;6.85;4.60;;;;;;;12.79;71.05;94833.63;5050603;28;20447;-70
2023/05/25 03:37:47;;;;;;;5.47;4.40;;;;;;;12.73;70.79;94819.38;5033153;28;20410;-70
2023/05/25 03:40:13;;;;;;;6.40;4.60;;;;;;;12.75;71.03;94829.66;5023710;28;20036;-70
2023/05/25 03:42:38;;;;;;;5.13;4.63;;;;;;;12.71;71.50;94836.94;5052936;28;20048;-70
2023/05/25 03:45:05;;;;;;;5.13;4.63;;;;;;;12.76;71.40;94820.88;5035018;28;20032;-70
2023/05/25 03:47:30;;;;;;;4.82;4.32;;;;;;;12.75;71.38;94833.06;5031697;28;20052;-70
2023/05/25 03:49:56;;;;;;;5.10;4.40;;;;;;;12.93;71.09;94834.97;5042392;28;20029;-70
2023/05/25 03:52:21;;;;;;;4.90;4.38;;;;;;;12.93;70.80;94827.97;5052805;28;20035;-70
2023/05/25 03:54:47;;;;;;;7.45;4.80;;;;;;;12.96;70.83;94829.47;5052488;28;20037;-70
2023/05/25 03:57:13;;;;;;;5.43;4.43;;;;;;;12.75;70.94;94811.41;5045803;28;20057;-70
2023/05/25 03:59:38;;;;;;;5.63;5.03;;;;;;;12.99;71.28;94844.84;5051659;28;20083;-70
2023/05/25 04:02:04;;;;;;;8.10;5.10;;;;;;;13.16;70.79;94844.09;5034749;28;20034;-70
2023/05/25 04:04:29;;;;;;;6.28;4.75;;;;;;;13.74;68.76;94835.25;5033033;28;20052;-70
2023/05/25 04:06:54;;;;;;;8.38;5.13;;;;;;;13.84;68.71;94849.06;5042173;28;20037;-70
2023/05/25 04:09:20;;;;;;;7.90;5.28;;;;;;;14.12;67.81;94850.81;5034420;28;20051;-70
2023/05/25 04:11:45;;;;;;;5.20;4.60;;;;;;;14.33;66.89;94851.38;5048724;28;20495;-70
2023/05/25 04:14:11;;;;;;;7.40;4.78;;;;;;;14.64;65.69;94856.25;5014856;28;20506;-71
2023/05/25 04:16:36;;;;;;;6.50;4.95;;;;;;;14.86;65.23;94849.72;5025228;28;20491;-71
2023/05/25 04:19:02;;;;;;;11.25;6.68;;;;;;;15.43;64.43;94855.28;5034389;28;20037;-71
2023/05/25 04:21:28;;;;;;;16.70;9.43;;;;;;;15.78;62.64;94850.91;5039438;28;20029;-71
2023/05/25 04:23:53;;;;;;;9.90;7.13;;;;;;;16.23;61.88;94852.34;5031216;28;20029;-70
2023/05/25 04:26:19;;;;;;;5.43;4.75;;;;;;;16.47;60.84;94847.16;5038684;28;20547;-70
2023/05/25 04:28:44;;;;;;;17.92;4.53;;;;;;;16.42;60.48;94859.94;5030592;28;20029;-70
2023/05/25 04:31:13;;;;;;;5.75;4.53;;;;;;;16.06;61.53;94847.06;5037890;28;20336;-70
2023/05/25 04:33:39;;;;;;;5.93;4.38;;;;;;;16.24;61.51;94856.59;5047958;28;20418;-70
2023/05/25 04:36:05;;;;;;;5.88;4.40;;;;;;;16.34;60.36;94862.53;5047922;28;20098;-70
2023/05/25 04:38:32;;;;;;;5.28;4.40;;;;;;;16.28;60.13;94856.13;5046429;28;20033;-70
2023/05/25 04:40:58;;;;;;;4.97;4.32;;;;;;;16.26;59.88;94852.03;5030102;28;20037;-70
2023/05/25 04:43:24;;;;;;;5.40;4.28;;;;;;;16.31;60.29;94858.44;5043174;28;20354;-70
2023/05/25 04:45:53;;;;;;;5.00;4.30;;;;;;;16.25;59.89;94860.88;5029248;28;20090;-70
2023/05/25 04:48:19;;;;;;;4.57;3.80;;;;;;;16.20;60.36;94857.91;5030163;28;20031;-70
2023/05/25 04:50:44;;;;;;;5.45;4.40;;;;;;;16.18;60.74;94863.31;5044776;28;20096;-70
2023/05/25 04:53:10;;;;;;;5.88;4.30;;;;;;;16.34;60.54;94857.28;5044738;28;20040;-70
2023/05/25 04:55:35;;;;;;;6.55;4.30;;;;;;;16.54;61.03;94858.63;5026842;28;20423;-70
2023/05/25 04:58:02;;;;;;;7.90;4.72;;;;;;;16.04;61.98;94861.31;5047986;28;20032;-70
2023/05/25 05:00:27;;;;;;;8.88;4.57;;;;;;;16.27;61.65;94862.38;5045057;28;20037;-70
2023/05/25 05:02:55;;;;;;;7.30;4.70;;;;;;;16.20;61.43;94860.53;5045320;28;20410;-70
2023/05/25 05:05:21;;;;;;;6.55;5.07;;;;;;;16.28;62.04;94858.75;5046371;28;20131;-70
2023/05/25 05:07:46;;;;;;;6.97;5.00;;;;;;;16.19;62.21;94827.47;5014078;28;20028;-70
2023/05/25 05:10:12;;;;;;;9.75;6.88;;;;;;;16.44;62.09;94844.06;5044588;28;20168;-70
2023/05/25 05:12:37;;;;;;;17.85;12.50;;;;;;;16.50;61.81;94852.06;5028089;28;20095;-70
2023/05/25 05:15:03;;;;;;;13.30;10.00;;;;;;;16.56;61.30;94847.97;5046890;28;20178;-70
2023/05/25 05:17:29;;;;;;;9.20;5.47;;;;;;;16.50;60.63;94828.47;5046102;28;20029;-70
2023/05/25 05:19:55;;;;;;;7.68;5.15;;;;;;;17.24;59.66;94859.13;5043243;28;20025;-70
2023/05/25 05:22:21;;;;;;;7.40;4.75;;;;;;;17.31;59.93;94850.44;5046759;28;20033;-70
2023/05/25 05:24:46;;;;;;;10.18;4.65;;;;;;;17.49;58.75;94858.09;5027195;28;20048;-70
2023/05/25 05:27:13;;;;;;;11.32;5.45;;;;;;;17.35;59.05;94849.09;5044310;28;20040;-70
2023/05/25 05:29:38;;;;;;;8.88;5.00;;;;;;;17.36;59.10;94856.00;5029638;28;20055;-70
2023/05/25 05:32:04;;;;;;;12.65;5.97;;;;;;;17.30;59.44;94869.81;5047740;28;20041;-69
2023/05/25 05:34:30;;;;;;;9.20;5.57;;;;;;;16.88;61.35;94870.81;5045822;28;20025;-70
2023/05/25 05:36:56;;;;;;;5.78;4.90;;;;;;;16.96;60.80;94865.53;5028512;28;20128;-70
2023/05/25 05:39:21;;;;;;;5.50;4.90;;;;;;;17.21;60.35;94868.16;5011493;28;20171;-70
2023/05/25 05:41:47;;;;;;;10.18;4.75;;;;;;;16.89;60.21;94808.69;5011026;28;20037;-70
2023/05/25 05:44:12;;;;;;;6.43;4.35;;;;;;;17.06;60.28;94819.97;5027802;28;20115;-70
2023/05/25 05:46:38;;;;;;;7.47;4.85;;;;;;;17.63;59.82;94869.69;5030109;28;20032;-70
2023/05/25 05:49:03;;;;;;;11.10;5.70;;;;;;;17.51;59.55;94823.78;5044583;28;20573;-70
2023/05/25 05:51:29;;;;;;;11.40;6.20;;;;;;;17.54;59.77;94813.75;5029227;28;20040;-70
2023/05/25 05:53:55;;;;;;;9.15;5.72;;;;;;;17.99;59.42;94879.78;5025885;28;20091;-70
2023/05/25 05:56:20;;;;;;;7.88;5.60;;;;;;;17.82;58.65;94822.03;5024108;28;20041;-70
2023/05/25 05:58:48;;;;;;;7.97;5.57;;;;;;;17.84;58.45;94838.47;5012406;28;20163;-70
2023/05/25 06:01:15;;;;;;;6.70;5.43;;;;;;;18.04;57.78;94832.78;5002847;28;20052;-70
2023/05/25 06:03:41;;;;;;;7.57;5.32;;;;;;;18.17;57.33;94840.94;5027420;28;20033;-71
2023/05/25 06:06:07;;;;;;;9.23;5.63;;;;;;;18.03;57.99;94818.84;5042117;28;20415;-72
2023/05/25 06:08:32;;;;;;;7.47;5.80;;;;;;;18.40;57.28;94848.03;5028247;28;20041;-71
2023/05/25 06:10:58;;;;;;;10.43;5.85;;;;;;;18.60;56.91;94832.59;5011444;28;20052;-71
2023/05/25 06:13:23;;;;;;;7.13;5.35;;;;;;;18.65;56.92;94823.19;5020131;28;20479;-71
2023/05/25 06:15:48;;;;;;;10.32;5.28;;;;;;;18.53;57.34;94827.25;5009030;28;20590;-71
2023/05/25 06:18:14;;;;;;;7.55;5.57;;;;;;;18.75;55.29;94828.25;5028395;28;20056;-71
2023/05/25 06:20:40;;;;;;;5.38;4.78;;;;;;;19.15;55.31;94877.09;5027336;28;20045;-75
2023/05/25 06:23:07;;;;;;;6.10;5.20;;;;;;;19.40;54.84;94861.88;5042114;28;20037;-71
2023/05/25 06:25:32;;;;;;;9.25;5.82;;;;;;;19.42;55.00;94877.50;5041205;28;20120;-72
2023/05/25 06:27:57;;;;;;;7.20;5.75;;;;;;;19.30;54.72;94873.66;5028051;28;20531;-72
2023/05/25 06:30:23;;;;;;;8.05;5.03;;;;;;;19.63;54.85;94874.16;5044740;28;20080;-71
2023/05/25 06:32:49;;;;;;;10.30;5.53;;;;;;;19.04;55.12;94882.78;5022223;28;20044;-72
2023/05/25 06:35:18;;;;;;;6.78;5.50;;;;;;;19.27;55.22;94879.28;5039517;28;20426;-71
2023/05/25 06:37:47;;;;;;;9.00;5.50;;;;;;;18.94;56.92;94890.09;5040147;28;20112;-71
2023/05/25 06:40:14;;;;;;;9.23;5.32;;;;;;;19.45;54.42;94865.81;5021778;28;20613;-69
2023/05/25 06:42:40;;;;;;;7.38;5.70;;;;;;;19.41;54.43;94870.59;5022144;28;20025;-69
2023/05/25 06:45:06;;;;;;;9.27;5.90;;;;;;;19.35;54.89;94876.59;5040696;28;20578;-69
2023/05/25 06:47:31;;;;;;;6.50;5.90;;;;;;;19.43;54.83;94884.41;5024084;28;20034;-70
2023/05/25 06:49:57;;;;;;;9.02;6.00;;;;;;;19.58;54.53;94887.88;5027489;28;20029;-70
2023/05/25 06:52:23;;;;;;;13.38;5.93;;;;;;;19.55;54.49;94879.50;5040829;28;20021;-69
2023/05/25 06:54:48;;;;;;;11.90;6.50;;;;;;;19.70;54.04;94879.56;5038594;28;20090;-71
2023/05/25 06:57:14;;;;;;;8.35;5.90;;;;;;;20.15;52.58;94883.81;5021592;28;20041;-71
2023/05/25 06:59:40;;;;;;;11.40;6.63;;;;;;;19.89;53.81;94886.91;5037318;28;20033;-70
2023/05/25 07:02:05;;;;;;;10.02;6.00;;;;;;;20.35;52.65;94878.75;5041178;28;20520;-70
2023/05/25 07:04:31;;;;;;;12.07;6.40;;;;;;;20.20;52.93;94870.88;5040172;28;20032;-70
2023/05/25 07:07:00;;;;;;;12.13;6.30;;;;;;;19.69;53.09;94830.47;5038680;28;20540;-70
2023/05/25 07:09:25;;;;;;;9.07;6.38;;;;;;;20.01;53.22;94877.53;5030037;28;20060;-70
2023/05/25 07:11:51;;;;;;;9.48;6.35;;;;;;;19.93;53.09;94818.84;5028010;28;20021;-71
2023/05/25 07:14:17;;;;;;;9.63;6.38;;;;;;;20.05;52.62;94817.34;5012288;28;20033;-71
2023/05/25 07:16:43;;;;;;;10.27;7.40;;;;;;;20.15;52.93;94867.97;5026392;28;20628;-71
2023/05/25 07:19:10;;;;;;;11.00;7.53;;;;;;;20.34;52.84;94871.03;5009073;28;20434;-72
2023/05/25 07:21:36;;;;;;;11.05;7.32;;;;;;;20.34;52.53;94871.84;5027757;28;20039;-72
2023/05/25 07:24:02;;;;;;;10.70;6.88;;;;;;;20.21;52.45;94838.22;5010768;28;20030;-73
2023/05/25 07:26:27;;;;;;;11.02;6.80;;;;;;;20.48;53.21;94851.72;5012231;28;20422;-72
2023/05/25 07:28:53;;;;;;;11.18;7.03;;;;;;;20.29;52.19;94821.47;5011646;28;20043;-71
2023/05/25 07:31:18;;;;;;;10.40;7.57;;;;;;;20.06;53.16;94819.81;5014411;28;20025;-70
2023/05/25 07:33:44;;;;;;;11.43;7.38;;;;;;;19.51;54.84;94826.38;5029617;28;20534;-71
2023/05/25 07:36:09;;;;;;;16.33;8.00;;;;;;;19.64;55.06;94836.28;5030845;28;20045;-70
2023/05/25 07:38:35;;;;;;;10.73;7.60;;;;;;;19.26;56.59;94890.84;5047915;28;20068;-71
2023/05/25 07:41:01;;;;;;;10.68;8.23;;;;;;;18.44;56.99;94817.75;5017360;28;20061;-71
2023/05/25 07:43:27;;;;;;;9.10;7.75;;;;;;;18.78;58.01;94842.84;5030002;28;20043;-71
2023/05/25 07:45:52;;;;;;;17.60;8.48;;;;;;;18.84;57.28;94836.91;5047309;28;20033;-71
2023/05/25 07:48:18;;;;;;;12.10;8.77;;;;;;;18.90;58.11;94886.19;5045100;28;20041;-71
2023/05/25 07:50:43;;;;;;;14.40;9.52;;;;;;;18.93;57.20;94884.03;5047718;28;20029;-71
2023/05/25 07:53:09;;;;;;;11.82;8.95;;;;;;;18.48;58.77;94829.56;5045798;28;20024;-71
2023/05/25 07:55:34;;;;;;;17.67;9.60;;;;;;;18.72;58.31;94903.06;5030763;28;20483;-71
2023/05/25 07:58:00;;;;;;;14.35;9.73;;;;;;;18.18;59.30;94852.28;5030450;28;20025;-71
2023/05/25 08:00:26;;;;;;;14.63;8.88;;;;;;;18.39;59.01;94854.31;5014171;28;20102;-71
2023/05/25 08:02:51;;;;;;;16.45;9.75;;;;;;;18.70;58.68;94881.38;5029675;28;20498;-72
2023/05/25 08:05:17;;;;;;;14.70;8.98;;;;;;;18.77;58.89;94910.44;5014523;28;20072;-72
2023/05/25 08:07:44;;;;;;;13.25;8.73;;;;;;;18.75;59.53;94910.63;5028142;28;20495;-72
2023/05/25 08:10:09;;;;;;;11.85;8.43;;;;;;;18.35;59.03;94845.09;5010241;28;20077;-72
2023/05/25 08:12:35;;;;;;;13.85;10.10;;;;;;;18.41;59.46;94925.94;5039655;28;20041;-71
2023/05/25 08:15:00;;;;;;;13.95;8.60;;;;;;;18.17;59.55;94921.63;5045796;28;20465;-73
2023/05/25 08:17:26;;;;;;;12.45;8.57;;;;;;;18.07;59.57;94870.06;5012902;28;20051;-73
2023/05/25 08:19:53;;;;;;;10.00;7.90;;;;;;;18.18;60.52;94910.09;5048048;28;20037;-72
2023/05/25 08:22:18;;;;;;;14.18;8.38;;;;;;;18.06;61.10;94923.63;5046651;28;20025;-72
2023/05/25 08:24:44;;;;;;;10.85;7.75;;;;;;;18.03;61.56;94925.78;5026899;28;20090;-72
2023/05/25 08:27:10;;;;;;;9.20;7.80;;;;;;;18.04;60.98;94927.41;5045276;28;20029;-72
2023/05/25 08:29:36;;;;;;;14.40;6.90;;;;;;;17.94;61.08;94922.38;5027969;28;20458;-72
2023/05/25 08:32:01;;;;;;;15.48;7.38;;;;;;;17.86;61.44;94938.97;5011927;28;20117;-71
2023/05/25 08:34:28;;;;;;;10.40;7.05;;;;;;;17.71;62.09;94935.34;5043748;28;20037;-71
2023/05/25 08:36:53;;;;;;;11.30;7.15;;;;;;;17.63;62.41;94927.50;5038379;28;20033;-71
2023/05/25 08:39:19;;;;;;;9.73;7.90;;;;;;;17.42;63.06;94907.84;5047827;28;20051;-71
2023/05/25 08:41:44;;;;;;;10.88;7.43;;;;;;;17.56;63.40;94952.78;5028637;28;20059;-71
2023/05/25 08:44:10;;;;;;;11.70;6.97;;;;;;;17.60;63.54;94956.72;5043076;28;20056;-71
2023/05/25 08:46:35;;;;;;;14.30;8.13;;;;;;;17.17;64.42;94912.28;5012879;28;20036;-71
2023/05/25 08:49:11;;;;;;;12.18;8.00;;;;;;;17.41;65.08;94977.09;5028823;28;20060;-72
2023/05/25 08:51:56;;;;;;;13.57;7.80;;;;;;;17.49;66.32;94983.31;5046286;28;20032;-72
2023/05/25 08:54:33;;;;;;;10.48;6.97;;;;;;;17.42;66.79;94973.47;5044788;28;20036;-71
2023/05/25 08:57:14;;;;;;;8.52;5.50;;;;;;;17.29;64.62;94982.84;5030011;28;20490;-71
2023/05/25 08:59:59;;;;;;;7.22;5.60;;;;;;;17.14;65.34;94988.75;5043650;28;20036;-72
2023/05/25 09:02:31;;;;;;;9.55;5.40;;;;;;;17.09;65.73;94992.84;5047371;28;20102;-71
2023/05/25 09:04:58;;;;;;;9.10;5.90;;;;;;;16.78;69.51;94917.38;5041738;28;20033;-71
2023/05/25 09:07:23;;;;;;;8.13;5.78;;;;;;;16.86;67.43;94930.50;5029324;28;20037;-72
2023/05/25 09:09:49;;;;;;;10.00;5.68;;;;;;;17.23;66.37;95002.69;5029267;28;20143;-71
2023/05/25 09:12:15;;;;;;;10.07;5.18;;;;;;;17.35;68.78;95004.00;5028938;28;20529;-72
2023/05/25 09:14:44;;;;;;;7.85;5.25;;;;;;;17.39;71.00;95005.31;5045935;28;20029;-72
2023/05/25 09:17:12;;;;;;;7.50;5.55;;;;;;;17.26;71.72;94980.53;5029829;28;20513;-72
2023/05/25 09:19:37;;;;;;;6.40;5.65;;;;;;;17.30;72.74;95001.06;5030114;28;20044;-72
2023/05/25 09:22:03;;;;;;;8.48;5.80;;;;;;;17.00;72.28;94975.47;5007347;28;20388;-72
2023/05/25 09:24:29;;;;;;;6.63;5.18;;;;;;;16.78;70.08;94958.53;5045327;28;20033;-72
2023/05/25 09:26:55;;;;;;;7.53;5.63;;;;;;;16.90;69.81;94989.53;5045320;28;20037;-72
2023/05/25 09:29:20;;;;;;;10.40;5.40;;;;;;;17.00;72.10;94968.41;5024789;28;20492;-72
2023/05/25 09:31:46;;;;;;;9.90;5.38;;;;;;;16.86;70.97;94964.59;5009761;28;20560;-72
2023/05/25 09:34:12;;;;;;;8.23;5.53;;;;;;;17.15;72.44;94976.44;5028035;28;20064;-71
2023/05/25 09:36:40;;;;;;;9.93;5.88;;;;;;;16.94;70.52;94956.75;5012409;28;21370;-70
2023/05/25 09:39:08;;;;;;;6.35;5.38;;;;;;;16.99;69.66;94977.22;5012284;28;20037;-71
2023/05/25 09:41:33;;;;;;;6.28;5.40;;;;;;;17.03;69.50;94983.00;5043739;28;20059;-71
2023/05/25 09:44:00;;;;;;;8.88;5.97;;;;;;;17.09;69.69;94979.72;5044539;28;20060;-71
2023/05/25 09:46:26;;;;;;;8.45;6.63;;;;;;;16.89;70.22;94966.91;5017152;28;20494;-72
2023/05/25 09:48:52;;;;;;;11.82;7.10;;;;;;;16.85;70.53;94975.25;5024541;28;20040;-72
2023/05/25 09:51:17;;;;;;;9.52;6.40;;;;;;;16.79;70.25;94971.47;5028968;28;20025;-71
2023/05/25 09:53:43;;;;;;;7.95;5.40;;;;;;;16.74;69.64;94973.72;5027346;28;20085;-72
2023/05/25 09:56:10;;;;;;;7.43;6.40;;;;;;;17.05;70.34;94968.72;5028351;28;20025;-71
2023/05/25 09:58:36;;;;;;;7.38;5.75;;;;;;;17.26;68.66;94960.34;5012233;28;20061;-71
2023/05/25 10:01:03;;;;;;;9.98;5.85;;;;;;;17.22;68.70;94960.84;5009150;28;20064;-72
2023/05/25 10:03:29;;;;;;;7.25;5.85;;;;;;;17.00;69.60;94957.91;5027894;28;20060;-71
2023/05/25 10:05:54;;;;;;;7.13;5.90;;;;;;;17.17;70.69;94941.16;5046623;28;20024;-71
2023/05/25 10:08:24;;;;;;;8.25;6.38;;;;;;;17.52;71.21;94961.97;5028330;28;20067;-71
2023/05/25 10:10:49;;;;;;;9.30;7.00;;;;;;;17.56;70.92;94952.78;5013021;28;20069;-71
2023/05/25 10:13:15;;;;;;;8.45;6.40;;;;;;;17.54;70.20;94936.38;5027766;28;20095;-72
2023/05/25 10:15:40;;;;;;;9.00;7.60;;;;;;;17.34;70.55;94918.34;5014802;28;20438;-71
2023/05/25 10:18:06;;;;;;;9.93;7.00;;;;;;;17.10;69.62;94871.13;5029434;28;20034;-71
2023/05/25 10:20:31;;;;;;;8.50;6.90;;;;;;;17.59;69.57;94931.44;5045427;28;20025;-73
2023/05/25 10:23:02;;;;;;;8.20;5.80;;;;;;;17.47;70.31;94875.00;5026951;28;20029;-71
2023/05/25 10:25:40;;;;;;;7.05;5.60;;;;;;;17.95;69.60;94931.06;5029087;28;20037;-73
2023/05/25 10:28:28;;;;;;;6.60;5.75;;;;;;;18.17;69.11;94919.00;5013508;28;20382;-71
2023/05/25 10:30:57;;;;;;;6.00;5.40;;;;;;;18.06;68.74;94922.81;5046366;28;20079;-72
2023/05/25 10:33:22;;;;;;;7.85;4.88;;;;;;;17.97;67.32;94850.22;5027361;28;20112;-71
2023/05/25 10:35:48;;;;;;;5.13;4.50;;;;;;;18.32;66.78;94901.47;5026676;28;20127;-72
2023/05/25 10:38:14;;;;;;;5.25;4.18;;;;;;;18.35;64.71;94874.03;5044773;28;20512;-72
2023/05/25 10:40:39;;;;;;;5.68;3.40;;;;;;;18.59;63.13;94876.50;5012706;28;20410;-71
2023/05/25 10:43:05;;;;;;;5.55;3.75;;;;;;;18.84;61.45;94889.53;5046685;28;20021;-71
2023/05/25 10:45:31;;;;;;;5.05;3.88;;;;;;;18.78;62.35;94890.22;5032189;28;20536;-72
2023/05/25 10:47:56;;;;;;;7.00;3.47;;;;;;;18.71;59.92;94897.97;5015225;28;20477;-72
2023/05/25 10:50:25;;;;;;;4.97;3.75;;;;;;;18.61;62.01;94887.69;5015894;28;20086;-71
2023/05/25 10:53:06;;;;;;;6.40;3.55;;;;;;;18.41;61.82;94854.91;5047499;28;20535;-71
2023/05/25 10:55:48;;;;;;;5.15;3.30;;;;;;;18.60;59.15;94878.13;5049735;28;20033;-72
2023/05/25 10:58:15;;;;;;;4.63;3.80;;;;;;;19.06;58.64;94856.28;5050005;28;20033;-71
2023/05/25 11:00:41;;;;;;;3.88;3.20;;;;;;;19.16;59.83;94862.91;5049371;28;20032;-72
2023/05/25 11:03:06;;;;;;;4.30;3.58;;;;;;;18.96;59.46;94822.31;5031038;28;20036;-72
2023/05/25 11:05:33;;;;;;;3.97;3.45;;;;;;;19.33;59.89;94868.84;5048193;28;20108;-71
2023/05/25 11:08:06;;;;;;;5.25;4.05;;;;;;;19.14;59.04;94856.22;5048322;28;20104;-72
2023/05/25 11:10:47;;;;;;;4.38;3.47;;;;;;;19.16;58.33;94862.91;5016128;28;20044;-71
2023/05/25 11:13:34;;;;;;;;;;;;;;;19.32;61.07;94869.03;5049062;28;20078;-71
2023/05/25 11:16:19;;;;;;;5.95;4.72;;;;;;;18.78;60.50;94863.91;5049667;28;19917;-71
2023/05/25 11:18:56;;;;;;;5.78;4.07;;;;;;;18.96;60.66;94873.13;5031336;28;20033;-71
2023/05/25 11:21:25;;;;;;;6.63;5.40;;;;;;;18.85;62.07;94870.91;5048164;28;20033;-71
2023/05/25 11:24:01;;;;;;;9.70;5.70;;;;;;;18.60;62.24;94836.06;5046691;28;20178;-71
2023/05/25 11:26:33;;;;;;;8.45;5.85;;;;;;;18.72;62.14;94866.25;5013854;28;20517;-71
2023/05/25 11:29:00;;;;;;;9.18;6.00;;;;;;;18.34;63.37;94825.06;5014579;28;20032;-72
2023/05/25 11:31:31;;;;;;;10.23;6.00;;;;;;;18.60;63.04;94864.19;5047630;28;20029;-71